Time;durP1;ratioP1;P1;durP2;ratioP2;P2;SDS_P1;SDS_P2;PMS_P1;PMS_P2;Temp;Humidity;BMP_temperature;BMP_pressure;BME280_temperature;BME280_humidity;BME280_pressure;Samples;Min_cycle;Max_cycle;Signal;HPM_P1;HPM_P2
2023/04/22 00:02:31;;;;;;;10.23;9.13;;;;;;;;;;5230209;28;20354;-78
2023/04/22 00:05:02;;;;;;;8.50;7.50;;;;;;;;;;5228800;28;20671;-78
2023/04/22 00:07:34;;;;;;;9.00;8.13;;;;;;;;;;5230051;28;20053;-78
2023/04/22 00:10:06;;;;;;;9.30;7.83;;;;;;;;;;5229383;28;20132;-78
2023/04/22 00:12:37;;;;;;;9.27;8.17;;;;;;;;;;5229876;28;20032;-78
2023/04/22 00:15:09;;;;;;;9.70;8.80;;;;;;;;;;5228542;28;20017;-78
2023/04/22 00:17:41;;;;;;;10.20;8.83;;;;;;;;;;5229887;28;20464;-78
2023/04/22 00:20:20;;;;;;;9.47;8.53;;;;;;;;;;5228746;28;20369;-78
2023/04/22 00:22:51;;;;;;;10.20;9.20;;;;;;;;;;5239840;27;20023;-79
2023/04/22 00:25:22;;;;;;;9.87;8.87;;;;;;;;;;5323807;27;20029;-78
2023/04/22 00:27:53;;;;;;;11.40;9.80;;;;;;;;;;5228421;27;20032;-79
2023/04/22 00:30:25;;;;;;;10.17;9.17;;;;;;;;;;5228191;28;20029;-78
2023/04/22 00:32:56;;;;;;;11.60;10.27;;;;;;;;;;5229572;28;20307;-79
2023/04/22 00:35:27;;;;;;;11.17;9.50;;;;;;;;;;5229253;28;20066;-78
2023/04/22 00:37:58;;;;;;;10.77;9.77;;;;;;;;;;5229592;28;20038;-78
2023/04/22 00:40:30;;;;;;;10.53;9.47;;;;;;;;;;5229177;28;20057;-78
2023/04/22 00:43:01;;;;;;;10.73;9.73;;;;;;;;;;5228660;28;20029;-79
2023/04/22 00:45:32;;;;;;;11.33;9.77;;;;;;;;;;5226698;28;20027;-78
2023/04/22 00:48:04;;;;;;;11.17;10.17;;;;;;;;;;5229287;28;20037;-78
2023/04/22 00:50:35;;;;;;;11.67;10.57;;;;;;;;;;5231411;28;20017;-78
2023/04/22 00:53:06;;;;;;;11.10;10.00;;;;;;;;;;5243079;28;20090;-78
2023/04/22 00:55:37;;;;;;;10.50;9.50;;;;;;;;;;5226907;28;20642;-78
2023/04/22 00:58:09;;;;;;;14.00;9.97;;;;;;;;;;5228905;28;20373;-78
2023/04/22 01:00:40;;;;;;;13.13;10.43;;;;;;;;;;5228189;28;20030;-78
2023/04/22 01:03:11;;;;;;;10.37;9.37;;;;;;;;;;5228512;28;20060;-76
2023/04/22 01:05:44;;;;;;;10.97;9.93;;;;;;;;;;5228558;28;20029;-78
2023/04/22 01:08:15;;;;;;;10.93;9.83;;;;;;;;;;5228493;27;20033;-77
2023/04/22 01:10:46;;;;;;;11.03;9.23;;;;;;;;;;5229062;28;20036;-77
2023/04/22 01:13:18;;;;;;;11.67;10.47;;;;;;;;;;5226868;28;20104;-77
2023/04/22 01:15:49;;;;;;;10.93;9.93;;;;;;;;;;5228084;28;20045;-78
2023/04/22 01:18:20;;;;;;;10.93;9.27;;;;;;;;;;5231998;28;20503;-77
2023/04/22 01:20:52;;;;;;;10.13;9.23;;;;;;;;;;5232449;27;20054;-78
2023/04/22 01:23:23;;;;;;;11.07;9.97;;;;;;;;;;5232280;28;20049;-78
2023/04/22 01:25:57;;;;;;;10.17;9.17;;;;;;;;;;5231810;28;20074;-78
2023/04/22 01:28:29;;;;;;;9.30;8.48;;;;;;;;;;5232209;28;20108;-78
2023/04/22 01:31:01;;;;;;;10.40;9.20;;;;;;;;;;5334715;27;20053;-78
2023/04/22 01:33:32;;;;;;;9.87;8.97;;;;;;;;;;5231702;28;20536;-78
2023/04/22 01:36:04;;;;;;;8.87;7.97;;;;;;;;;;5232564;28;20366;-78
2023/04/22 01:38:35;;;;;;;9.87;8.97;;;;;;;;;;5230443;28;20025;-79
2023/04/22 01:41:06;;;;;;;9.83;8.83;;;;;;;;;;5232388;27;20025;-79
2023/04/22 01:43:39;;;;;;;9.83;8.17;;;;;;;;;;5232097;28;20021;-79
2023/04/22 01:46:15;;;;;;;9.20;8.30;;;;;;;;;;5229236;28;20062;-79
2023/04/22 01:48:50;;;;;;;9.20;8.40;;;;;;;;;;5231905;27;20014;-79
2023/04/22 01:51:22;;;;;;;10.97;8.47;;;;;;;;;;5231411;27;20095;-79
2023/04/22 01:53:53;;;;;;;9.07;8.17;;;;;;;;;;5232474;27;20021;-78
2023/04/22 01:56:25;;;;;;;12.67;8.90;;;;;;;;;;5247884;28;20043;-79
2023/04/22 01:58:56;;;;;;;8.60;7.80;;;;;;;;;;5231995;27;20098;-79
2023/04/22 02:01:27;;;;;;;10.10;7.80;;;;;;;;;;5229598;28;20026;-80
2023/04/22 02:03:58;;;;;;;8.20;7.40;;;;;;;;;;5229676;28;20029;-79
2023/04/22 02:06:31;;;;;;;10.30;8.67;;;;;;;;;;5231510;28;20113;-78
2023/04/22 02:09:02;;;;;;;8.63;7.83;;;;;;;;;;5231582;28;21012;-78
2023/04/22 02:11:33;;;;;;;8.70;7.80;;;;;;;;;;5231010;28;20029;-79
2023/04/22 02:14:04;;;;;;;9.23;8.33;;;;;;;;;;5231865;28;20021;-78
2023/04/22 02:16:36;;;;;;;8.60;7.80;;;;;;;;;;5229448;27;20045;-78
2023/04/22 02:19:07;;;;;;;9.03;8.03;;;;;;;;;;5231428;28;20478;-78
2023/04/22 02:21:38;;;;;;;8.33;7.53;;;;;;;;;;5231340;28;20491;-78
2023/04/22 02:24:10;;;;;;;9.63;8.10;;;;;;;;;;5230530;28;20033;-79
2023/04/22 02:26:42;;;;;;;8.13;7.33;;;;;;;;;;5231489;28;20033;-77
2023/04/22 02:29:13;;;;;;;8.50;7.60;;;;;;;;;;5229154;28;20064;-77
2023/04/22 02:31:44;;;;;;;9.27;8.43;;;;;;;;;;5230714;28;20022;-79
2023/04/22 02:34:15;;;;;;;8.90;8.10;;;;;;;;;;5229299;27;20044;-77
2023/04/22 02:36:47;;;;;;;9.27;8.40;;;;;;;;;;5229484;27;20018;-77
2023/04/22 02:39:18;;;;;;;10.23;9.27;;;;;;;;;;5230674;28;20018;-78
2023/04/22 02:41:49;;;;;;;9.60;8.70;;;;;;;;;;5231639;28;20017;-77
2023/04/22 02:44:20;;;;;;;9.33;8.40;;;;;;;;;;5230521;28;20104;-78
2023/04/22 02:46:51;;;;;;;9.30;8.50;;;;;;;;;;5231180;28;20025;-78
2023/04/22 02:49:23;;;;;;;9.43;8.43;;;;;;;;;;5231070;28;20029;-78
2023/04/22 02:51:55;;;;;;;8.90;8.10;;;;;;;;;;5231404;27;20029;-78
2023/04/22 02:54:27;;;;;;;9.87;8.97;;;;;;;;;;5231076;28;20032;-78
2023/04/22 02:56:58;;;;;;;11.40;8.90;;;;;;;;;;5231512;27;20749;-78
2023/04/22 02:59:30;;;;;;;10.20;9.20;;;;;;;;;;5232248;28;20021;-78
2023/04/22 03:02:01;;;;;;;9.93;8.93;;;;;;;;;;5229396;28;20049;-77
2023/04/22 03:04:32;;;;;;;10.57;8.60;;;;;;;;;;5229390;27;20030;-78
2023/04/22 03:07:04;;;;;;;11.13;8.90;;;;;;;;;;5230655;28;20362;-78
2023/04/22 03:09:35;;;;;;;9.77;8.63;;;;;;;;;;5230868;28;20106;-79
2023/04/22 03:12:06;;;;;;;10.40;9.33;;;;;;;;;;5231094;28;20477;-79
2023/04/22 03:14:37;;;;;;;9.87;8.97;;;;;;;;;;5228164;27;20020;-79
2023/04/22 03:17:09;;;;;;;9.80;8.83;;;;;;;;;;5229697;28;20025;-77
2023/04/22 03:19:40;;;;;;;9.50;8.57;;;;;;;;;;5230486;27;20021;-77
2023/04/22 03:22:11;;;;;;;10.87;9.57;;;;;;;;;;5229398;28;20018;-77
2023/04/22 03:24:42;;;;;;;10.80;9.80;;;;;;;;;;5230834;28;20131;-77
2023/04/22 03:27:13;;;;;;;10.33;9.33;;;;;;;;;;5229429;28;20048;-78
2023/04/22 03:29:45;;;;;;;11.50;10.10;;;;;;;;;;5228944;28;20396;-77
2023/04/22 03:32:16;;;;;;;9.80;8.80;;;;;;;;;;5230226;28;20078;-78
2023/04/22 03:34:47;;;;;;;11.53;10.40;;;;;;;;;;5229248;28;20014;-79
2023/04/22 03:37:18;;;;;;;11.47;10.37;;;;;;;;;;5230234;28;20396;-78
2023/04/22 03:39:50;;;;;;;11.47;10.27;;;;;;;;;;5230574;28;20035;-78
2023/04/22 03:42:21;;;;;;;10.20;9.23;;;;;;;;;;5230136;28;20124;-78
2023/04/22 03:44:52;;;;;;;11.37;10.33;;;;;;;;;;5229473;28;20024;-78
2023/04/22 03:47:23;;;;;;;10.63;9.37;;;;;;;;;;5230149;28;20643;-78
2023/04/22 03:49:55;;;;;;;11.97;10.77;;;;;;;;;;5230113;28;20029;-78
2023/04/22 03:52:26;;;;;;;11.90;10.80;;;;;;;;;;5228915;28;20025;-77
2023/04/22 03:54:58;;;;;;;11.43;10.30;;;;;;;;;;5229759;28;20026;-77
2023/04/22 03:57:29;;;;;;;12.17;10.97;;;;;;;;;;5229661;28;20025;-77
2023/04/22 04:00:00;;;;;;;10.73;9.73;;;;;;;;;;5301791;27;20590;-78
2023/04/22 04:02:31;;;;;;;12.37;11.17;;;;;;;;;;5231515;28;20033;-78
2023/04/22 04:05:03;;;;;;;12.10;10.90;;;;;;;;;;5229828;27;20516;-78
2023/04/22 04:07:35;;;;;;;11.27;10.27;;;;;;;;;;5228146;28;20174;-78
2023/04/22 04:10:06;;;;;;;11.53;10.43;;;;;;;;;;5229332;28;20514;-78
2023/04/22 04:12:37;;;;;;;11.00;9.90;;;;;;;;;;5229871;28;20159;-78
2023/04/22 04:15:08;;;;;;;9.93;9.03;;;;;;;;;;5228604;28;20070;-78
2023/04/22 04:17:40;;;;;;;10.57;9.57;;;;;;;;;;5229505;28;20024;-77
2023/04/22 04:20:11;;;;;;;10.60;9.47;;;;;;;;;;5229140;28;20052;-78
2023/04/22 04:22:42;;;;;;;10.17;9.27;;;;;;;;;;5228366;28;20070;-78
2023/04/22 04:25:13;;;;;;;11.60;9.20;;;;;;;;;;5230093;28;20032;-78
2023/04/22 04:27:45;;;;;;;10.87;9.80;;;;;;;;;;5229005;28;20122;-78
2023/04/22 04:30:16;;;;;;;9.83;8.83;;;;;;;;;;5231547;28;20025;-77
2023/04/22 04:32:48;;;;;;;10.17;9.23;;;;;;;;;;5229068;28;20025;-77
2023/04/22 04:35:20;;;;;;;11.10;8.97;;;;;;;;;;5226134;28;20104;-78
2023/04/22 04:37:52;;;;;;;11.80;9.80;;;;;;;;;;5220983;28;20449;-77
2023/04/22 04:40:23;;;;;;;11.37;8.97;;;;;;;;;;5227404;28;20030;-78
2023/04/22 04:42:56;;;;;;;11.53;10.20;;;;;;;;;;5228195;28;20056;-78
2023/04/22 04:45:27;;;;;;;10.93;9.83;;;;;;;;;;5209379;28;20049;-78
2023/04/22 04:47:59;;;;;;;13.00;10.67;;;;;;;;;;5208324;28;20068;-78
2023/04/22 04:50:30;;;;;;;11.07;9.97;;;;;;;;;;5212055;28;20018;-78
2023/04/22 04:53:02;;;;;;;12.77;9.73;;;;;;;;;;5224037;28;20028;-79
2023/04/22 04:55:33;;;;;;;10.70;9.47;;;;;;;;;;5210854;28;20014;-79
2023/04/22 04:58:04;;;;;;;13.83;10.80;;;;;;;;;;5211325;28;20018;-77
2023/04/22 05:00:35;;;;;;;11.50;10.43;;;;;;;;;;5209718;28;20474;-77
2023/04/22 05:03:07;;;;;;;13.10;10.13;;;;;;;;;;5212206;28;20469;-77
2023/04/22 05:05:38;;;;;;;11.73;9.97;;;;;;;;;;5212347;28;20018;-78
2023/04/22 05:08:09;;;;;;;12.73;11.43;;;;;;;;;;5313849;27;20025;-77
2023/04/22 05:10:41;;;;;;;14.83;10.40;;;;;;;;;;5212333;28;20157;-77
2023/04/22 05:13:12;;;;;;;12.07;10.23;;;;;;;;;;5211664;28;20014;-78
2023/04/22 05:15:43;;;;;;;11.67;10.17;;;;;;;;;;5211618;28;20071;-78
2023/04/22 05:18:15;;;;;;;11.53;10.33;;;;;;;;;;5210696;28;20018;-77
2023/04/22 05:20:46;;;;;;;11.57;10.37;;;;;;;;;;5223038;28;20078;-78
2023/04/22 05:23:17;;;;;;;12.80;11.50;;;;;;;;;;5232241;28;20128;-77
2023/04/22 05:25:48;;;;;;;14.57;11.83;;;;;;;;;;5232791;28;20545;-78
2023/04/22 05:28:19;;;;;;;13.80;12.40;;;;;;;;;;5231832;28;20025;-78
2023/04/22 05:30:51;;;;;;;13.47;12.23;;;;;;;;;;5225252;28;20029;-78
2023/04/22 05:33:22;;;;;;;15.97;11.83;;;;;;;;;;5211455;28;20030;-79
2023/04/22 05:35:53;;;;;;;14.07;12.67;;;;;;;;;;5211763;28;20457;-78
2023/04/22 05:38:25;;;;;;;15.13;13.50;;;;;;;;;;5211410;28;20018;-78
2023/04/22 05:40:56;;;;;;;13.47;12.17;;;;;;;;;;5211557;28;20347;-79
2023/04/22 05:43:27;;;;;;;17.03;13.10;;;;;;;;;;5211972;28;20034;-78
2023/04/22 05:45:59;;;;;;;13.67;12.37;;;;;;;;;;5210757;28;20022;-80
2023/04/22 05:48:30;;;;;;;16.00;11.53;;;;;;;;;;5313212;27;20037;-79
2023/04/22 05:51:01;;;;;;;14.00;12.23;;;;;;;;;;5211787;28;20454;-79
2023/04/22 05:53:32;;;;;;;11.97;10.87;;;;;;;;;;5216745;28;20566;-79
2023/04/22 05:56:04;;;;;;;12.73;11.33;;;;;;;;;;5232359;28;20042;-78
2023/04/22 05:58:36;;;;;;;13.83;11.83;;;;;;;;;;5231181;28;20100;-79
2023/04/22 06:01:08;;;;;;;16.27;11.40;;;;;;;;;;5231723;28;20082;-78
2023/04/22 06:03:39;;;;;;;12.27;11.00;;;;;;;;;;5231661;28;20497;-78
2023/04/22 06:06:10;;;;;;;12.07;10.93;;;;;;;;;;5231362;28;20040;-79
2023/04/22 06:08:41;;;;;;;12.10;10.73;;;;;;;;;;5231789;28;20038;-79
2023/04/22 06:11:13;;;;;;;15.50;12.03;;;;;;;;;;5231570;28;20029;-79
2023/04/22 06:13:44;;;;;;;11.80;10.80;;;;;;;;;;5230464;28;20025;-79
2023/04/22 06:16:15;;;;;;;12.93;11.60;;;;;;;;;;5231239;28;20055;-78
2023/04/22 06:18:46;;;;;;;12.93;11.73;;;;;;;;;;5231506;28;20021;-80
2023/04/22 06:21:19;;;;;;;11.77;10.57;;;;;;;;;;5230987;28;20021;-79
2023/04/22 06:23:50;;;;;;;12.80;11.50;;;;;;;;;;5229892;28;20422;-78
2023/04/22 06:26:21;;;;;;;11.90;10.80;;;;;;;;;;5230959;28;20021;-78
2023/04/22 06:28:52;;;;;;;13.93;11.00;;;;;;;;;;5229828;28;20028;-78
2023/04/22 06:31:24;;;;;;;13.07;11.13;;;;;;;;;;5231319;28;20021;-78
2023/04/22 06:33:55;;;;;;;11.80;10.70;;;;;;;;;;5231587;28;20025;-78
2023/04/22 06:36:29;;;;;;;11.70;10.50;;;;;;;;;;5231452;28;20345;-78
2023/04/22 06:39:01;;;;;;;13.13;11.82;;;;;;;;;;5230287;28;20078;-78
2023/04/22 06:41:32;;;;;;;13.40;12.10;;;;;;;;;;5218600;28;20079;-78
2023/04/22 06:44:04;;;;;;;15.00;12.87;;;;;;;;;;5210080;28;20022;-79
2023/04/22 06:46:35;;;;;;;15.10;13.63;;;;;;;;;;5211182;28;20030;-79
2023/04/22 06:49:06;;;;;;;13.23;11.97;;;;;;;;;;5231704;28;20037;-79
2023/04/22 06:51:37;;;;;;;12.30;11.10;;;;;;;;;;5216682;28;20454;-78
2023/04/22 06:54:09;;;;;;;11.57;10.47;;;;;;;;;;5210455;28;20018;-79
2023/04/22 06:56:40;;;;;;;11.17;9.97;;;;;;;;;;5227015;28;20026;-79
2023/04/22 06:59:11;;;;;;;12.00;10.87;;;;;;;;;;5229769;28;20655;-79
2023/04/22 07:01:42;;;;;;;12.70;11.00;;;;;;;;;;5217331;28;20050;-78
2023/04/22 07:04:13;;;;;;;12.40;10.07;;;;;;;;;;5211465;28;20413;-79
2023/04/22 07:06:45;;;;;;;12.10;9.83;;;;;;;;;;5231032;28;20087;-79
2023/04/22 07:09:16;;;;;;;10.90;9.30;;;;;;;;;;5229824;28;20049;-79
2023/04/22 07:11:47;;;;;;;13.37;9.57;;;;;;;;;;5231173;28;20117;-78
2023/04/22 07:14:18;;;;;;;13.33;9.70;;;;;;;;;;5228396;28;20052;-78
2023/04/22 07:16:50;;;;;;;11.17;9.90;;;;;;;;;;5231078;28;20041;-79
2023/04/22 07:19:21;;;;;;;10.43;9.33;;;;;;;;;;5230558;28;20108;-80
2023/04/22 07:21:52;;;;;;;11.03;9.77;;;;;;;;;;5231045;28;20033;-79
2023/04/22 07:24:23;;;;;;;11.80;9.30;;;;;;;;;;5230478;28;20074;-79
2023/04/22 07:26:55;;;;;;;10.47;9.37;;;;;;;;;;5228530;28;20022;-77
2023/04/22 07:29:26;;;;;;;14.00;9.67;;;;;;;;;;5324999;27;20033;-78
2023/04/22 07:31:57;;;;;;;10.10;8.97;;;;;;;;;;5230661;28;20021;-79
2023/04/22 07:34:29;;;;;;;10.67;7.73;;;;;;;;;;5230204;28;20048;-79
2023/04/22 07:37:00;;;;;;;10.07;8.07;;;;;;;;;;5230945;28;20017;-80
2023/04/22 07:39:31;;;;;;;10.50;7.80;;;;;;;;;;5230167;28;20021;-79
2023/04/22 07:42:02;;;;;;;9.70;8.43;;;;;;;;;;5230598;28;20024;-80
2023/04/22 07:44:34;;;;;;;12.63;7.40;;;;;;;;;;5331734;27;20372;-80
2023/04/22 07:47:07;;;;;;;8.70;7.80;;;;;;;;;;5230358;28;20098;-80
2023/04/22 07:49:38;;;;;;;8.13;7.33;;;;;;;;;;5228984;28;20029;-78
2023/04/22 07:52:09;;;;;;;9.33;7.33;;;;;;;;;;5229241;28;20641;-78
2023/04/22 07:54:41;;;;;;;9.03;7.17;;;;;;;;;;5230598;28;20029;-78
2023/04/22 07:57:12;;;;;;;8.80;7.50;;;;;;;;;;5228887;28;20019;-81
2023/04/22 07:59:43;;;;;;;8.53;7.63;;;;;;;;;;5228616;28;20384;-81
2023/04/22 08:02:14;;;;;;;8.70;7.80;;;;;;;;;;5229190;28;20092;-82
2023/04/22 08:04:46;;;;;;;8.23;6.77;;;;;;;;;;5225214;28;20365;-77
2023/04/22 08:07:17;;;;;;;7.47;6.50;;;;;;;;;;5229467;27;20025;-76
2023/04/22 08:09:48;;;;;;;9.37;7.30;;;;;;;;;;5228414;28;20619;-76
2023/04/22 08:12:20;;;;;;;8.43;6.80;;;;;;;;;;5227421;27;20262;-76
2023/04/22 08:14:51;;;;;;;9.73;6.90;;;;;;;;;;5229243;28;20496;-76
2023/04/22 08:17:22;;;;;;;7.30;6.47;;;;;;;;;;5228964;28;20036;-76
2023/04/22 08:19:53;;;;;;;7.03;6.33;;;;;;;;;;5229404;28;20144;-76
2023/04/22 08:22:26;;;;;;;11.63;6.63;;;;;;;;;;5227461;27;20563;-76
2023/04/22 08:24:58;;;;;;;8.03;6.77;;;;;;;;;;5229498;28;20045;-76
2023/04/22 08:27:29;;;;;;;9.93;6.20;;;;;;;;;;5228293;28;20488;-77
2023/04/22 08:30:00;;;;;;;8.40;6.73;;;;;;;;;;5228444;28;20033;-77
2023/04/22 08:32:32;;;;;;;6.90;6.17;;;;;;;;;;5229048;28;20025;-76
2023/04/22 08:35:03;;;;;;;8.53;6.53;;;;;;;;;;5226757;27;20108;-76
2023/04/22 08:37:34;;;;;;;8.97;5.90;;;;;;;;;;5226747;28;20053;-76
2023/04/22 08:40:07;;;;;;;8.60;5.77;;;;;;;;;;5229415;28;20043;-76
2023/04/22 08:42:38;;;;;;;6.30;5.50;;;;;;;;;;5228215;28;20049;-76
2023/04/22 08:45:10;;;;;;;6.13;4.97;;;;;;;;;;5228234;27;20477;-77
2023/04/22 08:47:41;;;;;;;7.23;5.33;;;;;;;;;;5227845;28;20039;-75
2023/04/22 08:50:12;;;;;;;7.60;5.47;;;;;;;;;;5228672;28;20025;-75
2023/04/22 08:52:44;;;;;;;6.47;5.00;;;;;;;;;;5229357;28;20033;-75
2023/04/22 08:55:15;;;;;;;7.90;5.05;;;;;;;;;;5227684;28;20423;-75
2023/04/22 08:57:47;;;;;;;7.28;4.80;;;;;;;;;;5229314;28;20030;-76
2023/04/22 09:00:18;;;;;;;7.90;5.47;;;;;;;;;;5225328;28;20547;-76
2023/04/22 09:02:50;;;;;;;6.18;5.18;;;;;;;;;;5227793;27;20102;-76
2023/04/22 09:05:22;;;;;;;5.80;4.38;;;;;;;;;;5229201;28;20041;-75
2023/04/22 09:07:54;;;;;;;7.63;4.60;;;;;;;;;;5228858;28;20029;-77
2023/04/22 09:10:25;;;;;;;6.45;4.40;;;;;;;;;;5228418;28;20534;-77
2023/04/22 09:12:57;;;;;;;8.18;4.68;;;;;;;;;;5229364;28;20462;-76
2023/04/22 09:15:28;;;;;;;5.55;4.70;;;;;;;;;;5227882;28;20162;-76
2023/04/22 09:18:01;;;;;;;5.07;4.60;;;;;;;;;;5229646;28;20101;-76
2023/04/22 09:20:32;;;;;;;7.55;4.45;;;;;;;;;;5228860;28;20083;-75
2023/04/22 09:23:04;;;;;;;5.72;4.95;;;;;;;;;;5227535;28;20030;-76
2023/04/22 09:25:36;;;;;;;6.32;4.70;;;;;;;;;;5227379;28;20033;-76
2023/04/22 09:28:10;;;;;;;5.10;4.57;;;;;;;;;;5227702;28;20149;-76
2023/04/22 09:30:42;;;;;;;;;;;;;;;;;;5228285;28;20043;-76
2023/04/22 09:33:13;;;;;;;8.10;5.18;;;;;;;;;;5227588;28;19917;-77
2023/04/22 09:35:44;;;;;;;5.00;4.53;;;;;;;;;;5227899;28;20268;-76
2023/04/22 09:38:16;;;;;;;6.68;4.88;;;;;;;;;;5230475;28;20616;-76
2023/04/22 09:40:47;;;;;;;10.93;4.70;;;;;;;;;;5229468;28;20024;-76
2023/04/22 09:43:19;;;;;;;6.97;4.30;;;;;;;;;;5231441;28;20107;-76
2023/04/22 09:45:51;;;;;;;5.80;4.65;;;;;;;;;;5231616;28;20591;-76
2023/04/22 09:48:22;;;;;;;7.03;4.80;;;;;;;;;;5230784;28;20090;-77
2023/04/22 09:50:53;;;;;;;7.95;5.97;;;;;;;;;;5230356;28;20029;-77
2023/04/22 09:53:25;;;;;;;6.30;4.50;;;;;;;;;;5231859;28;20578;-75
2023/04/22 09:55:56;;;;;;;5.97;4.43;;;;;;;;;;5232443;28;20074;-76
2023/04/22 09:58:27;;;;;;;6.30;4.60;;;;;;;;;;5230639;28;20784;-76
2023/04/22 10:00:58;;;;;;;7.22;4.82;;;;;;;;;;5232190;28;20026;-76
2023/04/22 10:03:30;;;;;;;6.90;5.18;;;;;;;;;;5232021;28;20021;-75
2023/04/22 10:06:01;;;;;;;8.25;4.90;;;;;;;;;;5230686;28;20018;-76
2023/04/22 10:08:32;;;;;;;6.80;4.55;;;;;;;;;;5231794;28;20005;-76
2023/04/22 10:11:03;;;;;;;8.73;4.50;;;;;;;;;;5231875;28;20448;-76
2023/04/22 10:13:35;;;;;;;5.43;4.70;;;;;;;;;;5229181;28;20025;-79
2023/04/22 10:16:06;;;;;;;4.65;4.25;;;;;;;;;;5231210;28;20104;-76
2023/04/22 10:18:38;;;;;;;5.47;4.30;;;;;;;;;;5229969;28;20078;-77
2023/04/22 10:21:09;;;;;;;5.88;4.13;;;;;;;;;;5228029;27;20020;-76
2023/04/22 10:23:44;;;;;;;4.72;4.20;;;;;;;;;;5226724;28;20223;-77
2023/04/22 10:26:34;;;;;;;5.10;4.57;;;;;;;;;;5231364;28;20102;-77
2023/04/22 10:29:06;;;;;;;5.03;3.75;;;;;;;;;;5210510;28;20021;-76
2023/04/22 10:31:37;;;;;;;5.93;4.15;;;;;;;;;;5222810;28;20029;-77
2023/04/22 10:34:13;;;;;;;5.65;3.97;;;;;;;;;;5226191;27;20021;-77
2023/04/22 10:37:03;;;;;;;4.90;4.05;;;;;;;;;;5230562;28;20078;-78
2023/04/22 10:39:34;;;;;;;5.05;3.40;;;;;;;;;;5217755;28;20089;-75
2023/04/22 10:42:09;;;;;;;3.90;2.70;;;;;;;;;;5227800;28;20021;-76
2023/04/22 10:44:50;;;;;;;4.68;3.03;;;;;;;;;;5226445;28;20017;-76
2023/04/22 10:47:27;;;;;;;4.35;3.47;;;;;;;;;;5228768;28;20029;-76
2023/04/22 10:50:08;;;;;;;5.82;3.15;;;;;;;;;;5226778;28;20088;-76
2023/04/22 10:52:40;;;;;;;7.18;3.75;;;;;;;;;;5229420;28;20185;-76
2023/04/22 10:55:12;;;;;;;4.18;2.95;;;;;;;;;;5228114;27;20021;-75
2023/04/22 10:57:44;;;;;;;6.22;3.20;;;;;;;;;;5229427;28;20009;-76
2023/04/22 11:00:20;;;;;;;6.20;4.07;;;;;;;;;;5221671;28;20022;-74
2023/04/22 11:02:53;;;;;;;7.15;3.50;;;;;;;;;;5222927;28;20040;-74
2023/04/22 11:05:26;;;;;;;7.77;3.43;;;;;;;;;;5228156;28;20066;-74
2023/04/22 11:08:11;;;;;;;4.97;3.30;;;;;;;;;;5318610;27;20051;-74
2023/04/22 11:10:44;;;;;;;6.10;3.90;;;;;;;;;;5312667;27;20045;-74
2023/04/22 11:13:16;;;;;;;5.32;4.25;;;;;;;;;;5230729;28;20520;-74
2023/04/22 11:15:49;;;;;;;7.10;4.57;;;;;;;;;;5209508;28;20025;-74
2023/04/22 11:18:21;;;;;;;7.95;4.20;;;;;;;;;;5208267;28;20481;-74
2023/04/22 11:20:52;;;;;;;5.60;4.10;;;;;;;;;;5209750;28;20026;-74
2023/04/22 11:23:25;;;;;;;7.50;5.30;;;;;;;;;;5209613;28;20527;-74
2023/04/22 11:25:59;;;;;;;5.50;4.53;;;;;;;;;;5209922;28;20210;-74
2023/04/22 11:28:31;;;;;;;6.97;4.23;;;;;;;;;;5208714;28;20515;-74
2023/04/22 11:31:05;;;;;;;8.53;4.43;;;;;;;;;;5210210;28;20018;-74
2023/04/22 11:33:39;;;;;;;7.63;5.07;;;;;;;;;;5208650;28;20090;-74
2023/04/22 11:36:11;;;;;;;7.80;5.00;;;;;;;;;;5209771;28;20045;-74
2023/04/22 11:38:52;;;;;;;9.03;4.97;;;;;;;;;;5208219;28;20602;-74
2023/04/22 11:41:24;;;;;;;5.37;4.70;;;;;;;;;;5209548;28;20026;-73
2023/04/22 11:43:55;;;;;;;6.80;4.90;;;;;;;;;;5208379;28;20018;-73
2023/04/22 11:46:27;;;;;;;9.20;4.80;;;;;;;;;;5209425;28;20025;-75
2023/04/22 11:49:13;;;;;;;6.23;5.07;;;;;;;;;;5209359;28;20108;-74
2023/04/22 11:51:54;;;;;;;7.83;5.30;;;;;;;;;;5209487;28;20033;-74
2023/04/22 11:54:29;;;;;;;5.93;5.33;;;;;;;;;;5213045;28;20025;-74
2023/04/22 11:57:08;;;;;;;7.70;5.73;;;;;;;;;;5233784;28;20028;-74
2023/04/22 11:59:39;;;;;;;8.40;4.90;;;;;;;;;;5229317;28;20068;-74
2023/04/22 12:02:10;;;;;;;7.60;5.07;;;;;;;;;;5228645;28;20128;-74
2023/04/22 12:04:42;;;;;;;7.43;5.23;;;;;;;;;;5231255;28;20512;-74
2023/04/22 12:07:14;;;;;;;8.30;5.90;;;;;;;;;;5232124;28;20154;-74
2023/04/22 12:09:45;;;;;;;8.63;5.80;;;;;;;;;;5229389;28;20061;-74
2023/04/22 12:12:16;;;;;;;8.97;6.53;;;;;;;;;;5230135;28;20085;-74
2023/04/22 12:14:48;;;;;;;7.00;6.07;;;;;;;;;;5229507;28;20013;-75
2023/04/22 12:17:23;;;;;;;7.93;6.17;;;;;;;;;;5228660;28;20082;-74
2023/04/22 12:19:54;;;;;;;7.37;6.17;;;;;;;;;;5228985;28;20083;-74
2023/04/22 12:22:26;;;;;;;7.17;5.90;;;;;;;;;;5231829;28;20041;-75
2023/04/22 12:24:58;;;;;;;10.77;6.77;;;;;;;;;;5230275;28;20381;-74
2023/04/22 12:27:30;;;;;;;6.67;5.87;;;;;;;;;;5229334;28;20085;-74
2023/04/22 12:30:02;;;;;;;7.43;6.13;;;;;;;;;;5226883;28;20021;-75
2023/04/22 12:32:34;;;;;;;6.77;5.90;;;;;;;;;;5229626;28;20027;-75
2023/04/22 12:35:07;;;;;;;7.90;7.10;;;;;;;;;;5230888;28;20017;-74
2023/04/22 12:37:38;;;;;;;8.40;6.53;;;;;;;;;;5231204;28;20029;-76
2023/04/22 12:40:10;;;;;;;11.50;6.17;;;;;;;;;;5230011;28;20695;-74
2023/04/22 12:42:41;;;;;;;8.57;6.10;;;;;;;;;;5228239;28;20570;-74
2023/04/22 12:45:12;;;;;;;7.43;6.47;;;;;;;;;;5230053;28;20927;-74
2023/04/22 12:47:45;;;;;;;14.43;8.17;;;;;;;;;;5230434;28;20124;-73
2023/04/22 12:50:16;;;;;;;7.50;6.80;;;;;;;;;;5228880;28;20021;-72
2023/04/22 12:52:47;;;;;;;10.40;6.97;;;;;;;;;;5229628;28;20475;-72
2023/04/22 12:55:19;;;;;;;10.70;7.30;;;;;;;;;;5228992;28;20034;-73
2023/04/22 12:57:51;;;;;;;7.97;6.50;;;;;;;;;;5229936;28;20021;-74
2023/04/22 13:00:23;;;;;;;8.13;7.33;;;;;;;;;;5229081;28;20149;-73
2023/04/22 13:02:54;;;;;;;9.53;7.27;;;;;;;;;;5226819;28;20095;-74
2023/04/22 13:05:25;;;;;;;9.07;6.77;;;;;;;;;;5230208;28;20032;-73
2023/04/22 13:07:57;;;;;;;8.43;7.40;;;;;;;;;;5232471;28;20763;-73
2023/04/22 13:10:28;;;;;;;8.07;7.27;;;;;;;;;;5231954;28;20045;-73
2023/04/22 13:13:02;;;;;;;7.97;7.17;;;;;;;;;;5231947;28;20042;-74
2023/04/22 13:15:35;;;;;;;10.07;6.90;;;;;;;;;;5232043;28;20092;-73
2023/04/22 13:18:06;;;;;;;8.17;7.40;;;;;;;;;;5236212;28;20021;-73
2023/04/22 13:20:38;;;;;;;9.00;7.63;;;;;;;;;;5233081;28;20361;-73
2023/04/22 13:23:10;;;;;;;10.37;7.50;;;;;;;;;;5229010;28;20029;-73
2023/04/22 13:25:41;;;;;;;9.03;7.77;;;;;;;;;;5232705;28;20017;-73
2023/04/22 13:28:12;;;;;;;9.00;8.13;;;;;;;;;;5231288;28;20036;-73
2023/04/22 13:30:44;;;;;;;8.40;7.57;;;;;;;;;;5229720;28;20108;-73
2023/04/22 13:33:15;;;;;;;9.97;8.97;;;;;;;;;;5232404;28;20023;-74
2023/04/22 13:35:46;;;;;;;8.90;8.00;;;;;;;;;;5231237;28;20045;-74
2023/04/22 13:38:18;;;;;;;9.80;7.97;;;;;;;;;;5229927;28;20660;-73
2023/04/22 13:40:49;;;;;;;8.40;7.50;;;;;;;;;;5229305;28;20053;-74
2023/04/22 13:43:20;;;;;;;8.50;7.67;;;;;;;;;;5222890;28;20030;-74
2023/04/22 13:45:52;;;;;;;8.47;7.57;;;;;;;;;;5229100;28;20056;-73
2023/04/22 13:48:23;;;;;;;9.20;8.13;;;;;;;;;;5229751;28;20025;-74
2023/04/22 13:50:54;;;;;;;9.03;8.13;;;;;;;;;;5232076;28;20021;-74
2023/04/22 13:53:26;;;;;;;9.20;8.33;;;;;;;;;;5232212;28;20037;-73
2023/04/22 13:55:57;;;;;;;9.23;8.27;;;;;;;;;;5232226;28;20010;-73
2023/04/22 13:58:28;;;;;;;9.43;8.33;;;;;;;;;;5230925;28;20026;-74
2023/04/22 14:00:59;;;;;;;8.33;7.53;;;;;;;;;;5232317;28;20028;-74
2023/04/22 14:03:31;;;;;;;11.80;8.47;;;;;;;;;;5231909;28;20020;-74
2023/04/22 14:06:02;;;;;;;8.97;7.90;;;;;;;;;;5258141;27;20450;-74
2023/04/22 14:08:34;;;;;;;9.50;8.50;;;;;;;;;;5228749;27;20025;-74
2023/04/22 14:11:06;;;;;;;10.27;7.80;;;;;;;;;;5222171;28;20029;-73
2023/04/22 14:13:37;;;;;;;9.63;7.40;;;;;;;;;;5219385;28;20029;-73
2023/04/22 14:16:10;;;;;;;7.97;7.13;;;;;;;;;;5231519;28;20017;-75
2023/04/22 14:18:41;;;;;;;10.53;7.63;;;;;;;;;;5213850;28;20034;-74
2023/04/22 14:21:12;;;;;;;11.00;7.50;;;;;;;;;;5210654;28;20018;-74
2023/04/22 14:23:43;;;;;;;8.73;7.57;;;;;;;;;;5227436;28;20058;-74
2023/04/22 14:26:15;;;;;;;7.83;7.03;;;;;;;;;;5230917;28;20037;-74
2023/04/22 14:28:46;;;;;;;13.47;8.93;;;;;;;;;;5227242;28;20033;-74
2023/04/22 14:31:18;;;;;;;13.93;9.03;;;;;;;;;;5230735;28;20030;-74
2023/04/22 14:33:49;;;;;;;9.00;7.60;;;;;;;;;;5230168;28;20032;-74
2023/04/22 14:36:21;;;;;;;13.67;8.00;;;;;;;;;;5230408;28;20021;-74
2023/04/22 14:38:52;;;;;;;8.10;7.00;;;;;;;;;;5231119;28;20021;-74
2023/04/22 14:41:23;;;;;;;7.17;6.37;;;;;;;;;;5227409;28;20832;-74
2023/04/22 14:43:55;;;;;;;7.83;6.33;;;;;;;;;;5230643;28;20377;-74
2023/04/22 14:46:26;;;;;;;13.20;6.37;;;;;;;;;;5223879;28;20018;-74
2023/04/22 14:48:57;;;;;;;8.23;6.87;;;;;;;;;;5231234;28;20025;-74
2023/04/22 14:51:30;;;;;;;7.57;6.77;;;;;;;;;;5230511;28;20060;-74
2023/04/22 14:54:01;;;;;;;6.90;5.57;;;;;;;;;;5231491;28;20029;-73
2023/04/22 14:56:32;;;;;;;6.53;5.93;;;;;;;;;;5230390;28;20010;-74
2023/04/22 14:59:04;;;;;;;6.93;5.10;;;;;;;;;;5230186;28;20154;-74
2023/04/22 15:01:35;;;;;;;4.83;4.33;;;;;;;;;;5231285;28;20024;-74
2023/04/22 15:04:07;;;;;;;5.60;4.53;;;;;;;;;;5229073;28;20013;-74